Sanford, TX (79078)

11:05 AM CDT on July 30, 2014 (GMT -0500)
KTXFRITC2 Elev 3160 ft | 35.64 °N, 101.60 °W | Change Station
Active Advisory: Flash Flood Watch

Current weather conditions updated 4 seconds ago

Overcast
Overcast
72.5 °F
Feels Like 70 °F
N
4.7
Wind Variable Wind from SE
Gusts 5.4 mph

Today is forecast to be Much Cooler than yesterday. Scattered thunderstorms possible.

Today
High -- | Low -- °F
--% Chance of Precip.
Yesterday
High -- | Low -- °F
Precip. -- in
6:52 AM 8:52 PM
Waxing Crescent, 12% visible
Pressure 29.99 in
Visibility 10.0 miles
Clouds Few 600 ft
Overcast 2300 ft
Heat Index 70 °F
Dew Point 69 °F
Humidity 89%
Rainfall 0.04 in
Snow Depth Not available.
UV 2 out of 12
Pollen 2.00 out of 12
Air Quality Not available.
Flu Activity Not available.
METAR KBGD 301551Z AUTO 18011KT 10SM FEW006 OVC023 20/18 A3009 RMK AO2 SLP154 T02000178

More Conditions Fewer Conditions

Pressure 29.99 in
Visibility 10.0 miles
Clouds Few 600 ft
Overcast 2300 ft
Heat Index 70 °F
Dew Point 69 °F
Humidity 89%
Rainfall 0.04 in
Snow Depth Not available.
UV 2 out of 12
Pollen 2.00 out of 12
Air Quality Not available.
Flu Activity Not available.
METAR KBGD 301551Z AUTO 18011KT 10SM FEW006 OVC023 20/18 A3009 RMK AO2 SLP154 T02000178

More Conditions Fewer Conditions

10-Day Weather Forecast

Almanac

Astronomy

Jul. 30, 2014 Rise Set
Actual Time 6:52 AM CDT 8:52 PM CDT
Civil Twilight 6:24 AM CDT 9:20 PM CDT
Nautical Twilight 5:49 AM CDT 9:54 PM CDT
Astronomical Twilight 5:13 AM CDT 10:31 PM CDT
Moon 10:17 AM CDT 10:45 PM CDT
Length of Visible Light 14h 55m
Length of Day
13h 59m
Tomorrow will be 1m 38s shorter.
Waxing Crescent, 12% of the Moon is Illuminated
Today
Waxing Crescent
Aug 3
First Quarter
Aug 10
Full
Aug 17
Last Quarter
Aug 25
New

Today's Extremes

State Highs State Lows

Community

WunderPhotos

Upload Photos

1,739,125 photos uploaded!

WunderBlogs® & News

By Dr. Jeff Masters
Director of Meteorology, Weather Underground
By Kari Strenfel
Meteorologist, Weather Underground
By Christopher C. Burt
Weather Historian, Weather Underground
July 30, 2014
July 30, 2014
July 30, 2014

Nearby

Snow Depth

Station Depth Elevation
No new snow has been reported.

Earthquake Activity

City Distance Mag. Time & Date
No recent earthquake activity has been reported nearby.
Minimum magnitude displayed is 2.5.

Coastal Water Temperatures

Place Temperature
No Stations Reporting

Nearby Weather Stations

Station Location Temp. Heat Index Dew Point Humidity Wind Precip. Elev Updated Type
RAWS CEDAR TX, Sanford, TX 69 °F - 66 °F 91% SSE  at  7 mph 0.00 in / hr 3052 ft 9:35 AM CDT MADIS
Fritch, TX 72.5 °F 70 °F 69 °F 89% SE  at  4.7 mph 0.00 in / hr 3160 ft 11:05 AM CDT Rapid Fire
Borger Country Club, Borger, TX 67.2 °F - 65 °F 93% South  at  0.0 mph 0.00 in / hr 3239 ft 11:05 AM CDT Rapid Fire

Show More Stations Show Fewer Stations